Daiyou69 — BKTQ4 — position and weather

sailwx.info

Track history (hours):
 
Tides and Currents Weather Stations Pressure Air Temp Water Temp Dewpoint Dewpoint Depression Visibility Wind Speed Wind Dir Waves Ship Positions

Daiyou69

Last reported at 2017-Nov-23 08:00 UTC. Time now 2017-Dec-16 09:17 UTC.
Position N 24°31' E 118°33'.
Warning: this ship's position is 23 days out of date.

Length 85 m; draft 3 m.

Type: Tanker. MMSI: 413401340.

Date/timePositionNaut miles runAvg speedWind from/ knotsBaromVisibWave heightAir tempDewpointWater temp
2017-Nov-23 08:00N 24°31' E 118°33'7 8.3
2017-Nov-23 07:06N 24°36' E 118°26'  
2017-Nov-19 23:57N 24°32' E 118°05'0 0.0
2017-Nov-19 23:27N 24°32' E 118°05'0 0.0
2017-Nov-19 22:50N 24°32' E 118°05'0 0.0
2017-Nov-19 21:15N 24°32' E 118°05'0 0.0
2017-Nov-19 20:44N 24°32' E 118°05'0 0.0
2017-Nov-19 20:26N 24°32' E 118°05'0 0.0
2017-Nov-19 19:56N 24°32' E 118°05'0 0.0
2017-Nov-19 19:26N 24°32' E 118°05'0 0.0
2017-Nov-19 18:57N 24°32' E 118°05'0 0.0
2017-Nov-19 18:21N 24°32' E 118°05'0 0.0
2017-Nov-19 17:38N 24°32' E 118°05'0 0.0
2017-Nov-19 17:26N 24°32' E 118°05'0 0.0
2017-Nov-19 16:57N 24°32' E 118°05'0 0.0
2017-Nov-19 16:26N 24°32' E 118°05'0 0.0
2017-Nov-19 15:57N 24°32' E 118°05'0 0.0
2017-Nov-19 15:27N 24°32' E 118°05'0 0.0
2017-Nov-19 14:51N 24°32' E 118°05'0 0.0
2017-Nov-19 14:27N 24°32' E 118°05'0 0.0
2017-Nov-19 13:45N 24°32' E 118°05'0 0.0
2017-Nov-19 13:20N 24°32' E 118°05'0 0.0
2017-Nov-19 12:56N 24°32' E 118°05'0 0.0
2017-Nov-19 12:27N 24°32' E 118°05'0 0.0
2017-Nov-19 11:45N 24°32' E 118°05'0 0.0
2017-Nov-19 11:26N 24°32' E 118°05'0 0.0
2017-Nov-19 10:57N 24°32' E 118°05'0 0.0
2017-Nov-19 10:26N 24°32' E 118°05'0 0.7
2017-Nov-19 09:59N 24°32' E 118°05'3 5.3
2017-Nov-19 09:30N 24°30' E 118°04'4 7.3
2017-Nov-19 09:00N 24°26' E 118°03'4 7.3
2017-Nov-19 08:30N 24°24' E 118°06'5 7.3
2017-Nov-19 07:50N 24°21' E 118°10'  
2017-Nov-16 04:24N 24°20' E 118°12'4 9.9
2017-Nov-16 04:00N 24°22' E 118°08'510.7
2017-Nov-16 03:31N 24°26' E 118°03'5 9.2
2017-Nov-16 02:59N 24°30' E 118°04'2 4.1
2017-Nov-16 02:30N 24°32' E 118°05'0 0.0
2017-Nov-16 01:50N 24°32' E 118°05'0 0.0
2017-Nov-16 01:14N 24°32' E 118°05'0 0.0
2017-Nov-16 00:57N 24°32' E 118°05'0 0.0
2017-Nov-16 00:27N 24°32' E 118°05'0 0.0
2017-Nov-15 23:50N 24°32' E 118°05'0 0.0
2017-Nov-15 23:14N 24°32' E 118°05'0 0.0
2017-Nov-15 22:56N 24°32' E 118°05'0 0.0
2017-Nov-15 22:27N 24°32' E 118°05'0 0.0
2017-Nov-15 21:56N 24°32' E 118°05'0 0.0
2017-Nov-15 21:27N 24°32' E 118°05'0 0.0
2017-Nov-15 20:57N 24°32' E 118°05'0 0.0
2017-Nov-15 20:27N 24°32' E 118°05'0 0.0
2017-Nov-15 19:38N 24°32' E 118°05'0 0.0
2017-Nov-15 19:26N 24°32' E 118°05'0 0.0
2017-Nov-15 18:44N 24°32' E 118°05'0 0.0
2017-Nov-15 18:26N 24°32' E 118°05'0 0.0
2017-Nov-15 17:56N 24°32' E 118°05'0 0.0
2017-Nov-15 17:27N 24°32' E 118°05'0 0.0
2017-Nov-15 16:27N 24°32' E 118°05'0 0.0
2017-Nov-15 15:51N 24°32' E 118°05'0 0.0
2017-Nov-15 15:27N 24°32' E 118°05'0 0.0
2017-Nov-15 14:32N 24°32' E 118°05'0 0.0
2017-Nov-15 14:26N 24°32' E 118°05'0 0.0
2017-Nov-15 13:50N 24°32' E 118°05'0 0.0
2017-Nov-15 13:14N 24°32' E 118°05'0 0.0
2017-Nov-15 12:50N 24°32' E 118°05'0 0.0
2017-Nov-15 12:26N 24°32' E 118°05'0 0.0
2017-Nov-15 11:56N 24°32' E 118°05'0 0.0
2017-Nov-15 11:27N 24°32' E 118°05'0 0.0
2017-Nov-15 10:56N 24°32' E 118°05'0 0.0
2017-Nov-15 10:21N 24°32' E 118°05'1 0.4
2017-Nov-15 08:54N 24°32' E 118°05'3 7.0
2017-Nov-15 08:30N 24°29' E 118°04'4 7.5
2017-Nov-15 08:01N 24°26' E 118°04'4 8.5
2017-Nov-15 07:30N 24°23' E 118°08'4 8.3
2017-Nov-15 07:01N 24°20' E 118°11'4 8.7
2017-Nov-15 06:31N 24°20' E 118°16'5 8.9
2017-Nov-15 06:00N 24°20' E 118°21'  
Track history (hours):
 
Tides and Currents Weather Stations Pressure Air Temp Water Temp Dewpoint Dewpoint Depression Visibility Wind Speed Wind Dir Waves Ship Positions

Daiyou69

Last reported at 2017-Nov-23 08:00 UTC. Time now 2017-Dec-16 09:17 UTC.
Position N 24°31' E 118°33'.
Warning: this ship's position is 23 days out of date.

Length 85 m; draft 3 m.

Type: Tanker. MMSI: 413401340.

Date/timePositionNaut miles runAvg speedWind from/ knotsBaromVisibWave heightAir tempDewpointWater temp
2017-Nov-23 08:00N 24°31' E 118°33'7 8.3
2017-Nov-23 07:06N 24°36' E 118°26'  
2017-Nov-19 23:57N 24°32' E 118°05'0 0.0
2017-Nov-19 23:27N 24°32' E 118°05'0 0.0
2017-Nov-19 22:50N 24°32' E 118°05'0 0.0
2017-Nov-19 21:15N 24°32' E 118°05'0 0.0
2017-Nov-19 20:44N 24°32' E 118°05'0 0.0
2017-Nov-19 20:26N 24°32' E 118°05'0 0.0
2017-Nov-19 19:56N 24°32' E 118°05'0 0.0
2017-Nov-19 19:26N 24°32' E 118°05'0 0.0
2017-Nov-19 18:57N 24°32' E 118°05'0 0.0
2017-Nov-19 18:21N 24°32' E 118°05'0 0.0
2017-Nov-19 17:38N 24°32' E 118°05'0 0.0
2017-Nov-19 17:26N 24°32' E 118°05'0 0.0
2017-Nov-19 16:57N 24°32' E 118°05'0 0.0
2017-Nov-19 16:26N 24°32' E 118°05'0 0.0
2017-Nov-19 15:57N 24°32' E 118°05'0 0.0
2017-Nov-19 15:27N 24°32' E 118°05'0 0.0
2017-Nov-19 14:51N 24°32' E 118°05'0 0.0
2017-Nov-19 14:27N 24°32' E 118°05'0 0.0
2017-Nov-19 13:45N 24°32' E 118°05'0 0.0
2017-Nov-19 13:20N 24°32' E 118°05'0 0.0
2017-Nov-19 12:56N 24°32' E 118°05'0 0.0
2017-Nov-19 12:27N 24°32' E 118°05'0 0.0
2017-Nov-19 11:45N 24°32' E 118°05'0 0.0
2017-Nov-19 11:26N 24°32' E 118°05'0 0.0
2017-Nov-19 10:57N 24°32' E 118°05'0 0.0
2017-Nov-19 10:26N 24°32' E 118°05'0 0.7
2017-Nov-19 09:59N 24°32' E 118°05'3 5.3
2017-Nov-19 09:30N 24°30' E 118°04'4 7.3
2017-Nov-19 09:00N 24°26' E 118°03'4 7.3
2017-Nov-19 08:30N 24°24' E 118°06'5 7.3
2017-Nov-19 07:50N 24°21' E 118°10'  
2017-Nov-16 04:24N 24°20' E 118°12'4 9.9
2017-Nov-16 04:00N 24°22' E 118°08'510.7
2017-Nov-16 03:31N 24°26' E 118°03'5 9.2
2017-Nov-16 02:59N 24°30' E 118°04'2 4.1
2017-Nov-16 02:30N 24°32' E 118°05'0 0.0
2017-Nov-16 01:50N 24°32' E 118°05'0 0.0
2017-Nov-16 01:14N 24°32' E 118°05'0 0.0
2017-Nov-16 00:57N 24°32' E 118°05'0 0.0
2017-Nov-16 00:27N 24°32' E 118°05'0 0.0
2017-Nov-15 23:50N 24°32' E 118°05'0 0.0
2017-Nov-15 23:14N 24°32' E 118°05'0 0.0
2017-Nov-15 22:56N 24°32' E 118°05'0 0.0
2017-Nov-15 22:27N 24°32' E 118°05'0 0.0
2017-Nov-15 21:56N 24°32' E 118°05'0 0.0
2017-Nov-15 21:27N 24°32' E 118°05'0 0.0
2017-Nov-15 20:57N 24°32' E 118°05'0 0.0
2017-Nov-15 20:27N 24°32' E 118°05'0 0.0
2017-Nov-15 19:38N 24°32' E 118°05'0 0.0
2017-Nov-15 19:26N 24°32' E 118°05'0 0.0
2017-Nov-15 18:44N 24°32' E 118°05'0 0.0
2017-Nov-15 18:26N 24°32' E 118°05'0 0.0
2017-Nov-15 17:56N 24°32' E 118°05'0 0.0
2017-Nov-15 17:27N 24°32' E 118°05'0 0.0
2017-Nov-15 16:27N 24°32' E 118°05'0 0.0
2017-Nov-15 15:51N 24°32' E 118°05'0 0.0
2017-Nov-15 15:27N 24°32' E 118°05'0 0.0
2017-Nov-15 14:32N 24°32' E 118°05'0 0.0
2017-Nov-15 14:26N 24°32' E 118°05'0 0.0
2017-Nov-15 13:50N 24°32' E 118°05'0 0.0
2017-Nov-15 13:14N 24°32' E 118°05'0 0.0
2017-Nov-15 12:50N 24°32' E 118°05'0 0.0
2017-Nov-15 12:26N 24°32' E 118°05'0 0.0
2017-Nov-15 11:56N 24°32' E 118°05'0 0.0
2017-Nov-15 11:27N 24°32' E 118°05'0 0.0
2017-Nov-15 10:56N 24°32' E 118°05'0 0.0
2017-Nov-15 10:21N 24°32' E 118°05'1 0.4
2017-Nov-15 08:54N 24°32' E 118°05'3 7.0
2017-Nov-15 08:30N 24°29' E 118°04'4 7.5
2017-Nov-15 08:01N 24°26' E 118°04'4 8.5
2017-Nov-15 07:30N 24°23' E 118°08'4 8.3
2017-Nov-15 07:01N 24°20' E 118°11'4 8.7
2017-Nov-15 06:31N 24°20' E 118°16'5 8.9
2017-Nov-15 06:00N 24°20' E 118°21'  

Dump ship's entire track history